sensor_id;sensor_type;location;lat;lon;timestamp;temperature;humidity
33328;DHT22;19692;52.998;9.116;2023-04-15T00:00:49;5.80;99.90
33328;DHT22;19692;52.998;9.116;2023-04-15T00:03:16;5.70;99.90
33328;DHT22;19692;52.998;9.116;2023-04-15T00:05:43;5.60;99.90
33328;DHT22;19692;52.998;9.116;2023-04-15T00:08:09;5.70;99.90
33328;DHT22;19692;52.998;9.116;2023-04-15T00:10:34;5.80;99.90
33328;DHT22;19692;52.998;9.116;2023-04-15T00:13:00;5.90;99.90
33328;DHT22;19692;52.998;9.116;2023-04-15T00:15:27;6.00;99.90
33328;DHT22;19692;52.998;9.116;2023-04-15T00:17:52;6.10;99.90
33328;DHT22;19692;52.998;9.116;2023-04-15T00:20:18;6.20;99.90
33328;DHT22;19692;52.998;9.116;2023-04-15T00:22:44;6.40;99.90
33328;DHT22;19692;52.998;9.116;2023-04-15T00:25:10;6.50;99.90
33328;DHT22;19692;52.998;9.116;2023-04-15T00:27:36;6.60;99.90
33328;DHT22;19692;52.998;9.116;2023-04-15T00:30:03;6.60;99.90
33328;DHT22;19692;52.998;9.116;2023-04-15T00:32:29;6.50;99.90
33328;DHT22;19692;52.998;9.116;2023-04-15T00:34:55;6.50;99.90
33328;DHT22;19692;52.998;9.116;2023-04-15T00:37:21;6.50;99.90
33328;DHT22;19692;52.998;9.116;2023-04-15T00:39:47;6.50;99.90
33328;DHT22;19692;52.998;9.116;2023-04-15T00:42:14;6.60;99.90
33328;DHT22;19692;52.998;9.116;2023-04-15T00:44:40;6.60;99.90
33328;DHT22;19692;52.998;9.116;2023-04-15T00:47:05;6.70;99.90
33328;DHT22;19692;52.998;9.116;2023-04-15T00:49:32;6.70;99.90
33328;DHT22;19692;52.998;9.116;2023-04-15T00:51:57;6.80;99.90
33328;DHT22;19692;52.998;9.116;2023-04-15T00:54:23;6.80;99.90
33328;DHT22;19692;52.998;9.116;2023-04-15T00:56:49;6.80;99.90
33328;DHT22;19692;52.998;9.116;2023-04-15T00:59:16;6.90;99.90
33328;DHT22;19692;52.998;9.116;2023-04-15T01:01:43;6.90;99.90
33328;DHT22;19692;52.998;9.116;2023-04-15T01:04:09;7.00;99.90
33328;DHT22;19692;52.998;9.116;2023-04-15T01:06:36;7.00;99.90
33328;DHT22;19692;52.998;9.116;2023-04-15T01:09:02;6.90;99.90
33328;DHT22;19692;52.998;9.116;2023-04-15T01:11:29;6.80;99.90
33328;DHT22;19692;52.998;9.116;2023-04-15T01:13:55;6.70;99.90
33328;DHT22;19692;52.998;9.116;2023-04-15T01:16:21;6.70;99.90
33328;DHT22;19692;52.998;9.116;2023-04-15T01:18:48;6.60;99.90
33328;DHT22;19692;52.998;9.116;2023-04-15T01:21:13;6.60;99.90
33328;DHT22;19692;52.998;9.116;2023-04-15T01:23:39;6.70;99.90
33328;DHT22;19692;52.998;9.116;2023-04-15T01:26:06;6.80;99.90
33328;DHT22;19692;52.998;9.116;2023-04-15T01:28:34;6.80;99.90
33328;DHT22;19692;52.998;9.116;2023-04-15T01:31:13;6.80;99.90
33328;DHT22;19692;52.998;9.116;2023-04-15T01:33:41;6.80;99.90
33328;DHT22;19692;52.998;9.116;2023-04-15T01:36:08;6.80;99.90
33328;DHT22;19692;52.998;9.116;2023-04-15T01:38:36;6.80;99.90
33328;DHT22;19692;52.998;9.116;2023-04-15T01:41:02;6.70;99.90
33328;DHT22;19692;52.998;9.116;2023-04-15T01:43:33;6.70;99.90
33328;DHT22;19692;52.998;9.116;2023-04-15T01:46:00;6.70;99.90
33328;DHT22;19692;52.998;9.116;2023-04-15T01:48:26;6.70;99.90
33328;DHT22;19692;52.998;9.116;2023-04-15T01:50:53;6.70;99.90
33328;DHT22;19692;52.998;9.116;2023-04-15T01:53:19;6.70;99.90
33328;DHT22;19692;52.998;9.116;2023-04-15T01:55:45;6.60;99.90
33328;DHT22;19692;52.998;9.116;2023-04-15T01:58:11;6.50;99.90
33328;DHT22;19692;52.998;9.116;2023-04-15T02:00:37;6.50;99.90
33328;DHT22;19692;52.998;9.116;2023-04-15T02:03:02;6.40;99.90
33328;DHT22;19692;52.998;9.116;2023-04-15T02:05:28;6.40;99.90
33328;DHT22;19692;52.998;9.116;2023-04-15T02:07:54;6.40;99.90
33328;DHT22;19692;52.998;9.116;2023-04-15T02:10:20;6.50;99.90
33328;DHT22;19692;52.998;9.116;2023-04-15T02:12:46;6.50;99.90
33328;DHT22;19692;52.998;9.116;2023-04-15T02:15:11;6.50;99.90
33328;DHT22;19692;52.998;9.116;2023-04-15T02:17:37;6.40;99.90
33328;DHT22;19692;52.998;9.116;2023-04-15T02:20:03;6.40;99.90
33328;DHT22;19692;52.998;9.116;2023-04-15T02:22:33;6.50;99.90
33328;DHT22;19692;52.998;9.116;2023-04-15T02:24:59;6.50;99.90
33328;DHT22;19692;52.998;9.116;2023-04-15T02:27:25;6.50;99.90
33328;DHT22;19692;52.998;9.116;2023-04-15T02:29:50;6.50;99.90
33328;DHT22;19692;52.998;9.116;2023-04-15T02:32:16;6.50;99.90
33328;DHT22;19692;52.998;9.116;2023-04-15T02:34:43;6.50;99.90
33328;DHT22;19692;52.998;9.116;2023-04-15T02:37:09;6.50;99.90
33328;DHT22;19692;52.998;9.116;2023-04-15T02:39:36;6.60;99.90
33328;DHT22;19692;52.998;9.116;2023-04-15T02:42:02;6.60;99.90
33328;DHT22;19692;52.998;9.116;2023-04-15T02:44:29;6.70;99.90
33328;DHT22;19692;52.998;9.116;2023-04-15T02:46:56;6.70;99.90
33328;DHT22;19692;52.998;9.116;2023-04-15T02:49:23;6.70;99.90
33328;DHT22;19692;52.998;9.116;2023-04-15T02:51:49;6.70;99.90
33328;DHT22;19692;52.998;9.116;2023-04-15T02:54:21;6.80;99.90
33328;DHT22;19692;52.998;9.116;2023-04-15T02:56:50;6.80;99.90
33328;DHT22;19692;52.998;9.116;2023-04-15T02:59:19;6.80;99.90
33328;DHT22;19692;52.998;9.116;2023-04-15T03:01:45;6.80;99.90
33328;DHT22;19692;52.998;9.116;2023-04-15T03:04:11;6.80;99.90
33328;DHT22;19692;52.998;9.116;2023-04-15T03:06:37;6.80;99.90
33328;DHT22;19692;52.998;9.116;2023-04-15T03:09:03;6.80;99.90
33328;DHT22;19692;52.998;9.116;2023-04-15T03:11:30;6.80;99.90
33328;DHT22;19692;52.998;9.116;2023-04-15T03:13:56;6.70;99.90
33328;DHT22;19692;52.998;9.116;2023-04-15T03:16:23;6.60;99.90
33328;DHT22;19692;52.998;9.116;2023-04-15T03:18:49;6.60;99.90
33328;DHT22;19692;52.998;9.116;2023-04-15T03:21:15;6.50;99.90
33328;DHT22;19692;52.998;9.116;2023-04-15T03:23:40;6.50;99.90
33328;DHT22;19692;52.998;9.116;2023-04-15T03:26:06;6.60;99.90
33328;DHT22;19692;52.998;9.116;2023-04-15T03:28:32;6.60;99.90
33328;DHT22;19692;52.998;9.116;2023-04-15T03:30:58;6.70;99.90
33328;DHT22;19692;52.998;9.116;2023-04-15T03:33:24;6.80;99.90
33328;DHT22;19692;52.998;9.116;2023-04-15T03:35:50;6.70;99.90
33328;DHT22;19692;52.998;9.116;2023-04-15T03:38:16;6.70;99.90
33328;DHT22;19692;52.998;9.116;2023-04-15T03:40:42;6.70;99.90
33328;DHT22;19692;52.998;9.116;2023-04-15T03:43:08;6.70;99.90
33328;DHT22;19692;52.998;9.116;2023-04-15T03:45:34;6.70;99.90
33328;DHT22;19692;52.998;9.116;2023-04-15T03:48:00;6.70;99.90
33328;DHT22;19692;52.998;9.116;2023-04-15T03:50:25;6.70;99.90
33328;DHT22;19692;52.998;9.116;2023-04-15T03:52:52;6.70;99.90
33328;DHT22;19692;52.998;9.116;2023-04-15T03:55:17;6.60;99.90
33328;DHT22;19692;52.998;9.116;2023-04-15T03:57:44;6.60;99.90
33328;DHT22;19692;52.998;9.116;2023-04-15T04:00:10;6.70;99.90
33328;DHT22;19692;52.998;9.116;2023-04-15T04:02:36;6.80;99.90
33328;DHT22;19692;52.998;9.116;2023-04-15T04:05:02;6.70;99.90
33328;DHT22;19692;52.998;9.116;2023-04-15T04:07:28;6.70;99.90
33328;DHT22;19692;52.998;9.116;2023-04-15T04:09:55;6.70;99.90
33328;DHT22;19692;52.998;9.116;2023-04-15T04:12:21;6.70;99.90
33328;DHT22;19692;52.998;9.116;2023-04-15T04:14:47;6.70;99.90
33328;DHT22;19692;52.998;9.116;2023-04-15T04:17:13;6.70;99.90
33328;DHT22;19692;52.998;9.116;2023-04-15T04:19:38;6.70;99.90
33328;DHT22;19692;52.998;9.116;2023-04-15T04:22:04;6.80;99.90
33328;DHT22;19692;52.998;9.116;2023-04-15T04:24:30;6.70;99.90
33328;DHT22;19692;52.998;9.116;2023-04-15T04:26:56;6.60;99.90
33328;DHT22;19692;52.998;9.116;2023-04-15T04:29:22;6.60;99.90
33328;DHT22;19692;52.998;9.116;2023-04-15T04:31:48;6.60;99.90
33328;DHT22;19692;52.998;9.116;2023-04-15T04:34:14;6.60;99.90
33328;DHT22;19692;52.998;9.116;2023-04-15T04:36:40;6.60;99.90
33328;DHT22;19692;52.998;9.116;2023-04-15T04:39:07;6.60;99.90
33328;DHT22;19692;52.998;9.116;2023-04-15T04:41:33;6.60;99.90
33328;DHT22;19692;52.998;9.116;2023-04-15T04:43:58;6.60;99.90
33328;DHT22;19692;52.998;9.116;2023-04-15T04:46:24;6.70;99.90
33328;DHT22;19692;52.998;9.116;2023-04-15T04:48:50;6.70;99.90
33328;DHT22;19692;52.998;9.116;2023-04-15T04:51:16;6.60;99.90
33328;DHT22;19692;52.998;9.116;2023-04-15T04:53:42;6.70;99.90
33328;DHT22;19692;52.998;9.116;2023-04-15T04:56:08;6.70;99.90
33328;DHT22;19692;52.998;9.116;2023-04-15T04:58:33;6.60;99.90
33328;DHT22;19692;52.998;9.116;2023-04-15T05:00:59;6.70;99.90
33328;DHT22;19692;52.998;9.116;2023-04-15T05:03:25;6.70;99.90
33328;DHT22;19692;52.998;9.116;2023-04-15T05:05:51;6.80;99.90
33328;DHT22;19692;52.998;9.116;2023-04-15T05:08:17;6.80;99.90
33328;DHT22;19692;52.998;9.116;2023-04-15T05:10:43;6.80;99.90
33328;DHT22;19692;52.998;9.116;2023-04-15T05:13:08;6.80;99.90
33328;DHT22;19692;52.998;9.116;2023-04-15T05:15:34;6.80;99.90
33328;DHT22;19692;52.998;9.116;2023-04-15T05:18:01;6.70;99.90
33328;DHT22;19692;52.998;9.116;2023-04-15T05:20:27;6.70;99.90
33328;DHT22;19692;52.998;9.116;2023-04-15T05:22:53;6.80;99.90
33328;DHT22;19692;52.998;9.116;2023-04-15T05:25:19;6.80;99.90
33328;DHT22;19692;52.998;9.116;2023-04-15T05:27:45;6.90;99.90
33328;DHT22;19692;52.998;9.116;2023-04-15T05:30:11;6.80;99.90
33328;DHT22;19692;52.998;9.116;2023-04-15T05:32:37;6.90;99.90
33328;DHT22;19692;52.998;9.116;2023-04-15T05:35:03;6.90;99.90
33328;DHT22;19692;52.998;9.116;2023-04-15T05:37:29;6.90;99.90
33328;DHT22;19692;52.998;9.116;2023-04-15T05:39:55;7.00;99.90
33328;DHT22;19692;52.998;9.116;2023-04-15T05:42:21;7.10;99.90
33328;DHT22;19692;52.998;9.116;2023-04-15T05:44:46;7.00;99.90
33328;DHT22;19692;52.998;9.116;2023-04-15T05:47:12;7.00;99.90
33328;DHT22;19692;52.998;9.116;2023-04-15T05:49:38;6.90;99.90
33328;DHT22;19692;52.998;9.116;2023-04-15T05:52:04;6.90;99.90
33328;DHT22;19692;52.998;9.116;2023-04-15T05:54:30;7.00;99.90
33328;DHT22;19692;52.998;9.116;2023-04-15T05:56:56;6.90;99.90
33328;DHT22;19692;52.998;9.116;2023-04-15T05:59:22;6.90;99.90
33328;DHT22;19692;52.998;9.116;2023-04-15T06:01:48;6.90;99.90
33328;DHT22;19692;52.998;9.116;2023-04-15T06:04:14;6.90;99.90
33328;DHT22;19692;52.998;9.116;2023-04-15T06:06:41;6.90;99.90
33328;DHT22;19692;52.998;9.116;2023-04-15T06:09:07;6.90;99.90
33328;DHT22;19692;52.998;9.116;2023-04-15T06:11:32;6.90;99.90
33328;DHT22;19692;52.998;9.116;2023-04-15T06:13:58;7.00;99.90
33328;DHT22;19692;52.998;9.116;2023-04-15T06:16:24;7.00;99.90
33328;DHT22;19692;52.998;9.116;2023-04-15T06:18:49;7.00;99.90
33328;DHT22;19692;52.998;9.116;2023-04-15T06:21:16;7.10;99.90
33328;DHT22;19692;52.998;9.116;2023-04-15T06:23:42;7.10;99.90
33328;DHT22;19692;52.998;9.116;2023-04-15T06:26:08;7.10;99.90
33328;DHT22;19692;52.998;9.116;2023-04-15T06:28:34;7.10;99.90
33328;DHT22;19692;52.998;9.116;2023-04-15T06:30:59;7.10;99.90
33328;DHT22;19692;52.998;9.116;2023-04-15T06:33:26;7.20;99.90
33328;DHT22;19692;52.998;9.116;2023-04-15T06:35:52;7.20;99.90
33328;DHT22;19692;52.998;9.116;2023-04-15T06:38:18;7.10;99.90
33328;DHT22;19692;52.998;9.116;2023-04-15T06:40:43;7.10;99.90
33328;DHT22;19692;52.998;9.116;2023-04-15T06:43:09;7.10;99.90
33328;DHT22;19692;52.998;9.116;2023-04-15T06:45:35;7.20;99.90
33328;DHT22;19692;52.998;9.116;2023-04-15T06:48:01;7.20;99.90
33328;DHT22;19692;52.998;9.116;2023-04-15T06:50:26;7.20;99.90
33328;DHT22;19692;52.998;9.116;2023-04-15T06:52:53;7.20;99.90
33328;DHT22;19692;52.998;9.116;2023-04-15T06:55:20;7.10;99.90
33328;DHT22;19692;52.998;9.116;2023-04-15T06:57:45;7.20;99.90
33328;DHT22;19692;52.998;9.116;2023-04-15T07:00:11;7.20;99.90
33328;DHT22;19692;52.998;9.116;2023-04-15T07:02:38;7.30;99.90
33328;DHT22;19692;52.998;9.116;2023-04-15T07:05:05;7.30;99.90
33328;DHT22;19692;52.998;9.116;2023-04-15T07:07:35;7.30;99.90
33328;DHT22;19692;52.998;9.116;2023-04-15T07:10:01;7.30;99.90
33328;DHT22;19692;52.998;9.116;2023-04-15T07:12:27;7.30;99.90
33328;DHT22;19692;52.998;9.116;2023-04-15T07:14:53;7.30;99.90
33328;DHT22;19692;52.998;9.116;2023-04-15T07:17:18;7.40;99.90
33328;DHT22;19692;52.998;9.116;2023-04-15T07:19:44;7.30;99.90
33328;DHT22;19692;52.998;9.116;2023-04-15T07:22:10;7.30;99.90
33328;DHT22;19692;52.998;9.116;2023-04-15T07:24:36;7.40;99.90
33328;DHT22;19692;52.998;9.116;2023-04-15T07:27:02;7.40;99.90
33328;DHT22;19692;52.998;9.116;2023-04-15T07:29:28;7.40;99.90
33328;DHT22;19692;52.998;9.116;2023-04-15T07:31:54;7.40;99.90
33328;DHT22;19692;52.998;9.116;2023-04-15T07:34:21;7.40;99.90
33328;DHT22;19692;52.998;9.116;2023-04-15T07:36:47;7.40;99.90
33328;DHT22;19692;52.998;9.116;2023-04-15T07:39:17;7.40;99.90
33328;DHT22;19692;52.998;9.116;2023-04-15T07:41:43;7.50;99.90
33328;DHT22;19692;52.998;9.116;2023-04-15T07:44:09;7.50;99.90
33328;DHT22;19692;52.998;9.116;2023-04-15T07:46:34;7.60;99.90
33328;DHT22;19692;52.998;9.116;2023-04-15T07:49:01;7.60;99.90
33328;DHT22;19692;52.998;9.116;2023-04-15T07:51:27;7.50;99.90
33328;DHT22;19692;52.998;9.116;2023-04-15T07:53:53;7.60;99.90
33328;DHT22;19692;52.998;9.116;2023-04-15T07:56:19;7.60;99.90
33328;DHT22;19692;52.998;9.116;2023-04-15T07:58:46;7.60;99.90
33328;DHT22;19692;52.998;9.116;2023-04-15T08:01:11;7.60;99.90
33328;DHT22;19692;52.998;9.116;2023-04-15T08:03:37;7.70;99.90
33328;DHT22;19692;52.998;9.116;2023-04-15T08:06:03;7.70;99.90
33328;DHT22;19692;52.998;9.116;2023-04-15T08:08:29;7.80;99.90
33328;DHT22;19692;52.998;9.116;2023-04-15T08:10:56;7.80;99.90
33328;DHT22;19692;52.998;9.116;2023-04-15T08:13:22;7.80;99.90
33328;DHT22;19692;52.998;9.116;2023-04-15T08:16:18;7.90;99.90
33328;DHT22;19692;52.998;9.116;2023-04-15T08:18:46;7.80;99.90
33328;DHT22;19692;52.998;9.116;2023-04-15T08:21:13;7.90;99.90
33328;DHT22;19692;52.998;9.116;2023-04-15T08:23:39;7.80;99.90
33328;DHT22;19692;52.998;9.116;2023-04-15T08:26:05;7.90;99.90
33328;DHT22;19692;52.998;9.116;2023-04-15T08:28:31;8.00;99.90
33328;DHT22;19692;52.998;9.116;2023-04-15T08:30:56;8.00;99.90
33328;DHT22;19692;52.998;9.116;2023-04-15T08:33:22;8.00;99.90
33328;DHT22;19692;52.998;9.116;2023-04-15T08:35:48;8.00;99.90
33328;DHT22;19692;52.998;9.116;2023-04-15T08:38:14;8.10;99.90
33328;DHT22;19692;52.998;9.116;2023-04-15T08:40:42;8.10;99.90
33328;DHT22;19692;52.998;9.116;2023-04-15T08:43:17;8.10;99.90
33328;DHT22;19692;52.998;9.116;2023-04-15T08:45:49;8.10;99.90
33328;DHT22;19692;52.998;9.116;2023-04-15T08:48:16;8.20;99.90
33328;DHT22;19692;52.998;9.116;2023-04-15T08:50:42;8.20;99.90
33328;DHT22;19692;52.998;9.116;2023-04-15T08:53:09;8.20;99.90
33328;DHT22;19692;52.998;9.116;2023-04-15T08:55:44;8.20;99.90
33328;DHT22;19692;52.998;9.116;2023-04-15T08:58:12;8.30;99.90
33328;DHT22;19692;52.998;9.116;2023-04-15T09:00:39;8.30;99.90
33328;DHT22;19692;52.998;9.116;2023-04-15T09:03:07;8.30;99.90
33328;DHT22;19692;52.998;9.116;2023-04-15T09:05:33;8.30;99.90
33328;DHT22;19692;52.998;9.116;2023-04-15T09:08:01;8.30;99.90
33328;DHT22;19692;52.998;9.116;2023-04-15T09:10:27;8.30;99.90
33328;DHT22;19692;52.998;9.116;2023-04-15T09:12:54;8.30;99.90
33328;DHT22;19692;52.998;9.116;2023-04-15T09:15:20;8.30;99.90
33328;DHT22;19692;52.998;9.116;2023-04-15T09:17:49;8.30;99.90
33328;DHT22;19692;52.998;9.116;2023-04-15T09:20:16;8.30;99.90
33328;DHT22;19692;52.998;9.116;2023-04-15T09:22:44;8.40;99.90
33328;DHT22;19692;52.998;9.116;2023-04-15T09:25:31;8.40;99.90
33328;DHT22;19692;52.998;9.116;2023-04-15T09:27:59;8.40;99.90
33328;DHT22;19692;52.998;9.116;2023-04-15T09:30:29;8.50;99.90
33328;DHT22;19692;52.998;9.116;2023-04-15T09:35:27;8.50;99.90
33328;DHT22;19692;52.998;9.116;2023-04-15T09:38:03;8.60;99.90
33328;DHT22;19692;52.998;9.116;2023-04-15T09:40:36;8.60;99.90
33328;DHT22;19692;52.998;9.116;2023-04-15T09:43:05;8.50;99.90
33328;DHT22;19692;52.998;9.116;2023-04-15T09:45:32;8.60;99.90
33328;DHT22;19692;52.998;9.116;2023-04-15T09:48:22;8.60;99.90
33328;DHT22;19692;52.998;9.116;2023-04-15T09:50:51;8.60;99.90
33328;DHT22;19692;52.998;9.116;2023-04-15T09:53:23;8.70;99.90
33328;DHT22;19692;52.998;9.116;2023-04-15T09:55:57;8.70;99.90
33328;DHT22;19692;52.998;9.116;2023-04-15T09:58:33;8.70;99.90
33328;DHT22;19692;52.998;9.116;2023-04-15T10:01:02;8.80;99.90
33328;DHT22;19692;52.998;9.116;2023-04-15T10:03:33;8.80;99.90
33328;DHT22;19692;52.998;9.116;2023-04-15T10:06:02;8.90;99.90
33328;DHT22;19692;52.998;9.116;2023-04-15T10:08:30;8.90;99.90
33328;DHT22;19692;52.998;9.116;2023-04-15T10:10:58;8.90;99.90
33328;DHT22;19692;52.998;9.116;2023-04-15T10:13:29;8.90;99.90
33328;DHT22;19692;52.998;9.116;2023-04-15T10:16:11;9.00;99.90
33328;DHT22;19692;52.998;9.116;2023-04-15T10:18:42;9.00;99.90
33328;DHT22;19692;52.998;9.116;2023-04-15T10:21:08;9.00;99.90
33328;DHT22;19692;52.998;9.116;2023-04-15T10:23:34;9.00;99.90
33328;DHT22;19692;52.998;9.116;2023-04-15T10:26:02;9.10;99.90
33328;DHT22;19692;52.998;9.116;2023-04-15T10:28:28;9.20;99.90
33328;DHT22;19692;52.998;9.116;2023-04-15T10:30:55;9.30;99.90
33328;DHT22;19692;52.998;9.116;2023-04-15T10:33:22;9.30;99.90
33328;DHT22;19692;52.998;9.116;2023-04-15T10:35:50;9.20;99.90
33328;DHT22;19692;52.998;9.116;2023-04-15T10:38:34;9.20;99.90
33328;DHT22;19692;52.998;9.116;2023-04-15T10:41:18;9.30;99.90
33328;DHT22;19692;52.998;9.116;2023-04-15T10:46:39;9.20;99.90
33328;DHT22;19692;52.998;9.116;2023-04-15T10:49:42;9.30;99.90
33328;DHT22;19692;52.998;9.116;2023-04-15T10:52:01;9.30;99.90
33328;DHT22;19692;52.998;9.116;2023-04-15T10:59:28;9.40;99.90
33328;DHT22;19692;52.998;9.116;2023-04-15T11:02:03;9.40;99.90
33328;DHT22;19692;52.998;9.116;2023-04-15T11:04:55;9.50;99.90
33328;DHT22;19692;52.998;9.116;2023-04-15T11:07:35;9.50;99.90
33328;DHT22;19692;52.998;9.116;2023-04-15T11:12:39;9.50;99.90
33328;DHT22;19692;52.998;9.116;2023-04-15T11:15:31;9.60;99.90
33328;DHT22;19692;52.998;9.116;2023-04-15T11:18:19;9.50;99.90
33328;DHT22;19692;52.998;9.116;2023-04-15T11:20:48;9.50;99.90
33328;DHT22;19692;52.998;9.116;2023-04-15T11:23:26;9.50;99.90
33328;DHT22;19692;52.998;9.116;2023-04-15T11:25:57;9.50;99.90
33328;DHT22;19692;52.998;9.116;2023-04-15T11:28:25;9.50;99.90
33328;DHT22;19692;52.998;9.116;2023-04-15T11:30:52;9.50;99.90
33328;DHT22;19692;52.998;9.116;2023-04-15T11:33:20;9.50;99.90
33328;DHT22;19692;52.998;9.116;2023-04-15T11:35:46;9.50;99.90
33328;DHT22;19692;52.998;9.116;2023-04-15T11:38:13;9.40;99.90
33328;DHT22;19692;52.998;9.116;2023-04-15T11:40:40;9.50;99.90
33328;DHT22;19692;52.998;9.116;2023-04-15T11:43:20;9.40;99.90
33328;DHT22;19692;52.998;9.116;2023-04-15T11:48:27;9.40;99.90
33328;DHT22;19692;52.998;9.116;2023-04-15T11:53:38;9.40;99.90
33328;DHT22;19692;52.998;9.116;2023-04-15T11:56:05;9.40;99.90
33328;DHT22;19692;52.998;9.116;2023-04-15T11:58:34;9.60;99.90
33328;DHT22;19692;52.998;9.116;2023-04-15T12:01:02;9.60;99.90
33328;DHT22;19692;52.998;9.116;2023-04-15T12:03:37;9.60;99.90
33328;DHT22;19692;52.998;9.116;2023-04-15T12:06:13;9.60;99.90
33328;DHT22;19692;52.998;9.116;2023-04-15T12:14:19;9.50;99.90
33328;DHT22;19692;52.998;9.116;2023-04-15T12:17:03;9.60;99.90
33328;DHT22;19692;52.998;9.116;2023-04-15T12:19:40;9.60;99.90
33328;DHT22;19692;52.998;9.116;2023-04-15T12:22:15;9.70;99.90
33328;DHT22;19692;52.998;9.116;2023-04-15T12:24:42;9.70;99.90
33328;DHT22;19692;52.998;9.116;2023-04-15T12:27:11;9.90;99.90
33328;DHT22;19692;52.998;9.116;2023-04-15T12:29:40;10.00;99.90
33328;DHT22;19692;52.998;9.116;2023-04-15T12:32:09;10.10;99.90
33328;DHT22;19692;52.998;9.116;2023-04-15T12:34:43;10.20;99.90
33328;DHT22;19692;52.998;9.116;2023-04-15T12:37:14;10.30;99.90
33328;DHT22;19692;52.998;9.116;2023-04-15T12:39:41;10.30;99.90
33328;DHT22;19692;52.998;9.116;2023-04-15T12:42:09;10.40;99.90
33328;DHT22;19692;52.998;9.116;2023-04-15T12:44:36;10.40;99.90
33328;DHT22;19692;52.998;9.116;2023-04-15T12:47:02;10.50;99.90
33328;DHT22;19692;52.998;9.116;2023-04-15T12:49:29;10.60;99.90
33328;DHT22;19692;52.998;9.116;2023-04-15T12:51:56;10.60;99.90
33328;DHT22;19692;52.998;9.116;2023-04-15T12:54:26;10.70;99.90
33328;DHT22;19692;52.998;9.116;2023-04-15T12:56:53;10.60;99.90
33328;DHT22;19692;52.998;9.116;2023-04-15T12:59:19;10.80;99.90
33328;DHT22;19692;52.998;9.116;2023-04-15T13:01:47;10.80;99.90
33328;DHT22;19692;52.998;9.116;2023-04-15T13:04:13;10.90;99.90
33328;DHT22;19692;52.998;9.116;2023-04-15T13:06:39;11.00;99.90
33328;DHT22;19692;52.998;9.116;2023-04-15T13:09:05;11.10;99.90
33328;DHT22;19692;52.998;9.116;2023-04-15T13:11:32;11.30;99.90
33328;DHT22;19692;52.998;9.116;2023-04-15T13:14:03;11.40;99.90
33328;DHT22;19692;52.998;9.116;2023-04-15T13:16:30;11.60;99.90
33328;DHT22;19692;52.998;9.116;2023-04-15T13:18:58;11.80;99.90
33328;DHT22;19692;52.998;9.116;2023-04-15T13:21:24;11.90;99.90
33328;DHT22;19692;52.998;9.116;2023-04-15T13:23:51;12.10;99.90
33328;DHT22;19692;52.998;9.116;2023-04-15T13:26:17;12.30;99.90
33328;DHT22;19692;52.998;9.116;2023-04-15T13:28:43;12.70;99.90
33328;DHT22;19692;52.998;9.116;2023-04-15T13:31:11;13.10;99.90
33328;DHT22;19692;52.998;9.116;2023-04-15T13:33:37;13.00;99.90
33328;DHT22;19692;52.998;9.116;2023-04-15T13:36:03;13.00;99.90
33328;DHT22;19692;52.998;9.116;2023-04-15T13:38:28;13.20;99.90
33328;DHT22;19692;52.998;9.116;2023-04-15T13:40:54;13.10;99.90
33328;DHT22;19692;52.998;9.116;2023-04-15T13:43:20;12.90;99.90
33328;DHT22;19692;52.998;9.116;2023-04-15T13:45:46;12.80;99.90
33328;DHT22;19692;52.998;9.116;2023-04-15T13:48:12;12.90;99.90
33328;DHT22;19692;52.998;9.116;2023-04-15T13:50:38;13.00;99.90
33328;DHT22;19692;52.998;9.116;2023-04-15T13:53:05;12.90;99.90
33328;DHT22;19692;52.998;9.116;2023-04-15T13:55:31;12.80;99.90
33328;DHT22;19692;52.998;9.116;2023-04-15T13:57:59;12.90;99.90
33328;DHT22;19692;52.998;9.116;2023-04-15T14:00:25;12.90;99.90
33328;DHT22;19692;52.998;9.116;2023-04-15T14:02:50;13.00;99.90
33328;DHT22;19692;52.998;9.116;2023-04-15T14:05:16;13.00;99.90
33328;DHT22;19692;52.998;9.116;2023-04-15T14:07:42;13.10;99.90
33328;DHT22;19692;52.998;9.116;2023-04-15T14:10:08;13.20;99.90
33328;DHT22;19692;52.998;9.116;2023-04-15T14:12:33;13.20;99.90
33328;DHT22;19692;52.998;9.116;2023-04-15T14:14:59;13.20;99.90
33328;DHT22;19692;52.998;9.116;2023-04-15T14:17:27;13.20;99.90
33328;DHT22;19692;52.998;9.116;2023-04-15T14:19:53;13.00;99.90
33328;DHT22;19692;52.998;9.116;2023-04-15T14:22:19;12.90;99.90
33328;DHT22;19692;52.998;9.116;2023-04-15T14:24:44;12.80;99.90
33328;DHT22;19692;52.998;9.116;2023-04-15T14:27:13;12.80;99.90
33328;DHT22;19692;52.998;9.116;2023-04-15T14:29:38;12.90;99.90
33328;DHT22;19692;52.998;9.116;2023-04-15T14:32:04;13.00;99.90
33328;DHT22;19692;52.998;9.116;2023-04-15T14:34:31;13.00;99.90
33328;DHT22;19692;52.998;9.116;2023-04-15T14:36:56;13.00;99.90
33328;DHT22;19692;52.998;9.116;2023-04-15T14:39:22;13.20;99.90
33328;DHT22;19692;52.998;9.116;2023-04-15T14:41:48;13.50;99.90
33328;DHT22;19692;52.998;9.116;2023-04-15T14:44:14;13.70;99.90
33328;DHT22;19692;52.998;9.116;2023-04-15T14:46:40;13.50;99.90
33328;DHT22;19692;52.998;9.116;2023-04-15T14:49:06;13.10;99.90
33328;DHT22;19692;52.998;9.116;2023-04-15T14:51:32;12.80;99.90
33328;DHT22;19692;52.998;9.116;2023-04-15T14:53:58;12.60;99.90
33328;DHT22;19692;52.998;9.116;2023-04-15T14:56:24;12.50;99.90
33328;DHT22;19692;52.998;9.116;2023-04-15T14:58:51;12.40;99.90
33328;DHT22;19692;52.998;9.116;2023-04-15T15:01:19;12.40;99.90
33328;DHT22;19692;52.998;9.116;2023-04-15T15:03:45;12.40;99.90
33328;DHT22;19692;52.998;9.116;2023-04-15T15:06:11;12.50;99.90
33328;DHT22;19692;52.998;9.116;2023-04-15T15:08:37;12.60;99.90
33328;DHT22;19692;52.998;9.116;2023-04-15T15:11:02;12.50;99.90
33328;DHT22;19692;52.998;9.116;2023-04-15T15:13:28;12.60;99.90
33328;DHT22;19692;52.998;9.116;2023-04-15T15:15:54;12.70;99.90
33328;DHT22;19692;52.998;9.116;2023-04-15T15:18:20;12.80;99.90
33328;DHT22;19692;52.998;9.116;2023-04-15T15:20:46;12.80;99.90
33328;DHT22;19692;52.998;9.116;2023-04-15T15:23:11;12.90;99.90
33328;DHT22;19692;52.998;9.116;2023-04-15T15:25:37;13.00;99.90
33328;DHT22;19692;52.998;9.116;2023-04-15T15:28:03;13.10;99.90
33328;DHT22;19692;52.998;9.116;2023-04-15T15:30:29;13.20;99.90
33328;DHT22;19692;52.998;9.116;2023-04-15T15:32:55;13.50;99.90
33328;DHT22;19692;52.998;9.116;2023-04-15T15:35:20;13.60;99.90
33328;DHT22;19692;52.998;9.116;2023-04-15T15:37:47;13.60;99.90
33328;DHT22;19692;52.998;9.116;2023-04-15T15:40:13;13.60;99.90
33328;DHT22;19692;52.998;9.116;2023-04-15T15:42:39;13.60;99.90
33328;DHT22;19692;52.998;9.116;2023-04-15T15:45:07;13.60;99.90
33328;DHT22;19692;52.998;9.116;2023-04-15T15:47:33;13.50;99.90
33328;DHT22;19692;52.998;9.116;2023-04-15T15:49:59;13.40;99.90
33328;DHT22;19692;52.998;9.116;2023-04-15T15:52:25;13.30;99.90
33328;DHT22;19692;52.998;9.116;2023-04-15T15:54:51;13.30;99.90
33328;DHT22;19692;52.998;9.116;2023-04-15T15:57:17;13.30;99.90
33328;DHT22;19692;52.998;9.116;2023-04-15T15:59:43;13.20;99.90
33328;DHT22;19692;52.998;9.116;2023-04-15T16:02:10;13.30;99.90
33328;DHT22;19692;52.998;9.116;2023-04-15T16:04:37;13.20;99.90
33328;DHT22;19692;52.998;9.116;2023-04-15T16:07:03;13.20;99.90